sensor_id;sensor_type;location;lat;lon;timestamp;pressure;altitude;pressure_sealevel;temperature;humidity
46682;BME280;34101;53.430;-2.224;2022-09-27T00:01:08;154842.93;;;9.51;100.00
46682;BME280;34101;53.430;-2.224;2022-09-27T00:03:37;154838.25;;;9.50;100.00
46682;BME280;34101;53.430;-2.224;2022-09-27T00:06:07;154832.43;;;9.47;100.00
46682;BME280;34101;53.430;-2.224;2022-09-27T00:08:35;154821.69;;;9.43;100.00
46682;BME280;34101;53.430;-2.224;2022-09-27T00:11:03;154821.77;;;9.43;100.00
46682;BME280;34101;53.430;-2.224;2022-09-27T00:13:31;154816.76;;;9.41;100.00
46682;BME280;34101;53.430;-2.224;2022-09-27T00:15:59;154805.21;;;9.36;100.00
46682;BME280;34101;53.430;-2.224;2022-09-27T00:18:28;154787.52;;;9.29;100.00
46682;BME280;34101;53.430;-2.224;2022-09-27T00:20:55;154783.07;;;9.27;100.00
46682;BME280;34101;53.430;-2.224;2022-09-27T00:23:23;154774.43;;;9.24;100.00
46682;BME280;34101;53.430;-2.224;2022-09-27T00:25:55;154743.98;;;9.12;100.00
46682;BME280;34101;53.430;-2.224;2022-09-27T00:28:22;154728.23;;;9.05;100.00
46682;BME280;34101;53.430;-2.224;2022-09-27T00:30:49;154726.05;;;9.04;100.00
46682;BME280;34101;53.430;-2.224;2022-09-27T00:33:17;154728.23;;;9.05;100.00
46682;BME280;34101;53.430;-2.224;2022-09-27T00:35:44;154729.36;;;9.06;100.00
46682;BME280;34101;53.430;-2.224;2022-09-27T00:38:11;154732.51;;;9.07;100.00
46682;BME280;34101;53.430;-2.224;2022-09-27T00:40:39;154728.31;;;9.05;100.00
46682;BME280;34101;53.430;-2.224;2022-09-27T00:43:15;154737.03;;;9.09;100.00
46682;BME280;34101;53.430;-2.224;2022-09-27T00:45:47;154732.99;;;9.07;100.00
46682;BME280;34101;53.430;-2.224;2022-09-27T00:48:18;154722.25;;;9.03;100.00
46682;BME280;34101;53.430;-2.224;2022-09-27T00:50:49;154702.63;;;8.95;100.00
46682;BME280;34101;53.430;-2.224;2022-09-27T00:53:22;154687.52;;;8.89;100.00
46682;BME280;34101;53.430;-2.224;2022-09-27T00:55:53;154685.91;;;8.88;100.00
46682;BME280;34101;53.430;-2.224;2022-09-27T00:58:25;154690.76;;;8.90;100.00
46682;BME280;34101;53.430;-2.224;2022-09-27T01:00:58;154684.62;;;8.88;100.00
46682;BME280;34101;53.430;-2.224;2022-09-27T01:03:35;154681.71;;;8.86;100.00
46682;BME280;34101;53.430;-2.224;2022-09-27T01:06:06;154672.58;;;8.83;100.00
46682;BME280;34101;53.430;-2.224;2022-09-27T01:08:33;154673.80;;;8.83;100.00
46682;BME280;34101;53.430;-2.224;2022-09-27T01:11:12;154669.52;;;8.82;100.00
46682;BME280;34101;53.430;-2.224;2022-09-27T01:13:48;154664.67;;;8.80;100.00
46682;BME280;34101;53.430;-2.224;2022-09-27T01:16:28;154667.66;;;8.81;100.00
46682;BME280;34101;53.430;-2.224;2022-09-27T01:19:08;154662.25;;;8.79;100.00
46682;BME280;34101;53.430;-2.224;2022-09-27T01:21:45;154665.80;;;8.80;100.00
46682;BME280;34101;53.430;-2.224;2022-09-27T01:24:45;154680.42;;;8.86;100.00
46682;BME280;34101;53.430;-2.224;2022-09-27T01:28:07;154721.28;;;9.02;100.00
46682;BME280;34101;53.430;-2.224;2022-09-27T01:30:43;154740.59;;;9.10;100.00
46682;BME280;34101;53.430;-2.224;2022-09-27T01:33:20;154765.87;;;9.20;100.00
46682;BME280;34101;53.430;-2.224;2022-09-27T01:36:03;154774.51;;;9.24;100.00
46682;BME280;34101;53.430;-2.224;2022-09-27T01:38:41;154796.81;;;9.33;100.00
46682;BME280;34101;53.430;-2.224;2022-09-27T01:41:16;154807.87;;;9.37;100.00
46682;BME280;34101;53.430;-2.224;2022-09-27T01:43:47;154817.81;;;9.41;100.00
46682;BME280;34101;53.430;-2.224;2022-09-27T01:46:21;154832.67;;;9.47;100.00
46682;BME280;34101;53.430;-2.224;2022-09-27T01:48:50;154829.68;;;9.46;100.00
46682;BME280;34101;53.430;-2.224;2022-09-27T01:51:21;154823.38;;;9.44;100.00
46682;BME280;34101;53.430;-2.224;2022-09-27T01:53:52;154815.63;;;9.40;100.00
46682;BME280;34101;53.430;-2.224;2022-09-27T01:56:23;154795.84;;;9.32;100.00
46682;BME280;34101;53.430;-2.224;2022-09-27T01:58:57;154791.15;;;9.31;100.00
46682;BME280;34101;53.430;-2.224;2022-09-27T02:01:28;154792.52;;;9.31;100.00
46682;BME280;34101;53.430;-2.224;2022-09-27T02:03:59;154772.25;;;9.23;100.00
46682;BME280;34101;53.430;-2.224;2022-09-27T02:06:32;154741.88;;;9.11;100.00
46682;BME280;34101;53.430;-2.224;2022-09-27T02:09:04;154649.09;;;8.73;100.00
46682;BME280;34101;53.430;-2.224;2022-09-27T02:11:33;154624.94;;;8.64;100.00
46682;BME280;34101;53.430;-2.224;2022-09-27T02:14:06;154604.68;;;8.55;100.00
46682;BME280;34101;53.430;-2.224;2022-09-27T02:16:45;154594.26;;;8.51;100.00
46682;BME280;34101;53.430;-2.224;2022-09-27T02:19:23;154592.00;;;8.50;100.00
46682;BME280;34101;53.430;-2.224;2022-09-27T02:21:58;154610.09;;;8.58;100.00
46682;BME280;34101;53.430;-2.224;2022-09-27T02:24:37;154627.77;;;8.65;100.00
46682;BME280;34101;53.430;-2.224;2022-09-27T02:27:11;154614.45;;;8.59;100.00
46682;BME280;34101;53.430;-2.224;2022-09-27T02:29:46;154606.86;;;8.56;100.00
46682;BME280;34101;53.430;-2.224;2022-09-27T02:32:15;154605.97;;;8.56;100.00
46682;BME280;34101;53.430;-2.224;2022-09-27T02:34:44;154611.78;;;8.58;100.00
46682;BME280;34101;53.430;-2.224;2022-09-27T02:37:13;154633.91;;;8.67;100.00
46682;BME280;34101;53.430;-2.224;2022-09-27T02:39:40;154659.83;;;8.78;100.00
46682;BME280;34101;53.430;-2.224;2022-09-27T02:42:08;154682.84;;;8.87;100.00
46682;BME280;34101;53.430;-2.224;2022-09-27T02:44:37;154706.58;;;8.97;100.00
46682;BME280;34101;53.430;-2.224;2022-09-27T02:47:16;154723.46;;;9.03;100.00
46682;BME280;34101;53.430;-2.224;2022-09-27T02:49:56;154747.69;;;9.13;100.00
46682;BME280;34101;53.430;-2.224;2022-09-27T02:52:34;154771.44;;;9.23;100.00
46682;BME280;34101;53.430;-2.224;2022-09-27T02:55:10;154781.30;;;9.27;100.00
46682;BME280;34101;53.430;-2.224;2022-09-27T02:57:50;154769.66;;;9.22;100.00
46682;BME280;34101;53.430;-2.224;2022-09-27T03:00:32;154768.69;;;9.22;100.00
46682;BME280;34101;53.430;-2.224;2022-09-27T03:03:06;154779.44;;;9.26;100.00
46682;BME280;34101;53.430;-2.224;2022-09-27T03:05:39;154767.48;;;9.21;100.00
46682;BME280;34101;53.430;-2.224;2022-09-27T03:08:09;154744.54;;;9.12;100.00
46682;BME280;34101;53.430;-2.224;2022-09-27T03:10:37;154744.54;;;9.12;100.00
46682;BME280;34101;53.430;-2.224;2022-09-27T03:13:05;154762.48;;;9.19;100.00
46682;BME280;34101;53.430;-2.224;2022-09-27T03:15:32;154783.32;;;9.27;100.00
46682;BME280;34101;53.430;-2.224;2022-09-27T03:18:00;154786.71;;;9.29;100.00
46682;BME280;34101;53.430;-2.224;2022-09-27T03:20:29;154786.87;;;9.29;100.00
46682;BME280;34101;53.430;-2.224;2022-09-27T03:22:58;154770.31;;;9.22;100.00
46682;BME280;34101;53.430;-2.224;2022-09-27T03:25:26;154750.28;;;9.14;100.00
46682;BME280;34101;53.430;-2.224;2022-09-27T03:27:53;154753.11;;;9.15;100.00
46682;BME280;34101;53.430;-2.224;2022-09-27T03:30:20;154758.11;;;9.17;100.00
46682;BME280;34101;53.430;-2.224;2022-09-27T03:32:48;154737.84;;;9.09;100.00
46682;BME280;34101;53.430;-2.224;2022-09-27T03:35:15;154731.22;;;9.06;100.00
46682;BME280;34101;53.430;-2.224;2022-09-27T03:37:43;154720.72;;;9.02;100.00
46682;BME280;34101;53.430;-2.224;2022-09-27T03:40:10;154719.91;;;9.02;100.00
46682;BME280;34101;53.430;-2.224;2022-09-27T03:42:38;154712.08;;;8.99;100.00
46682;BME280;34101;53.430;-2.224;2022-09-27T03:45:06;154740.10;;;9.10;100.00
46682;BME280;34101;53.430;-2.224;2022-09-27T03:47:33;154738.65;;;9.09;100.00
46682;BME280;34101;53.430;-2.224;2022-09-27T03:50:01;154797.05;;;9.33;100.00
46682;BME280;34101;53.430;-2.224;2022-09-27T03:52:28;154841.56;;;9.51;100.00
46682;BME280;34101;53.430;-2.224;2022-09-27T03:54:56;154860.79;;;9.59;100.00
46682;BME280;34101;53.430;-2.224;2022-09-27T03:57:23;154871.21;;;9.63;100.00
46682;BME280;34101;53.430;-2.224;2022-09-27T03:59:50;154899.57;;;9.74;100.00
46682;BME280;34101;53.430;-2.224;2022-09-27T04:02:18;154899.01;;;9.74;100.00
46682;BME280;34101;53.430;-2.224;2022-09-27T04:04:45;154900.30;;;9.75;100.00
46682;BME280;34101;53.430;-2.224;2022-09-27T04:07:13;154891.57;;;9.71;100.00
46682;BME280;34101;53.430;-2.224;2022-09-27T04:09:41;154908.62;;;9.78;100.00
46682;BME280;34101;53.430;-2.224;2022-09-27T04:12:08;154921.07;;;9.83;100.00
46682;BME280;34101;53.430;-2.224;2022-09-27T04:14:36;154938.60;;;9.90;100.00
46682;BME280;34101;53.430;-2.224;2022-09-27T04:17:03;154959.13;;;9.98;100.00
46682;BME280;34101;53.430;-2.224;2022-09-27T04:19:31;154977.15;;;10.06;100.00
46682;BME280;34101;53.430;-2.224;2022-09-27T04:21:58;154988.79;;;10.10;100.00
46682;BME280;34101;53.430;-2.224;2022-09-27T04:24:27;154972.78;;;10.04;100.00
46682;BME280;34101;53.430;-2.224;2022-09-27T04:26:54;154938.76;;;9.90;100.00
46682;BME280;34101;53.430;-2.224;2022-09-27T04:29:21;154959.05;;;9.98;100.00
46682;BME280;34101;53.430;-2.224;2022-09-27T04:31:49;154974.97;;;10.05;100.00
46682;BME280;34101;53.430;-2.224;2022-09-27T04:34:16;154981.43;;;10.07;100.00
46682;BME280;34101;53.430;-2.224;2022-09-27T04:36:43;154979.17;;;10.06;100.00
46682;BME280;34101;53.430;-2.224;2022-09-27T04:39:11;154976.42;;;10.05;100.00
46682;BME280;34101;53.430;-2.224;2022-09-27T04:41:38;154988.22;;;10.10;100.00
46682;BME280;34101;53.430;-2.224;2022-09-27T04:44:06;154990.89;;;10.11;100.00
46682;BME280;34101;53.430;-2.224;2022-09-27T04:46:33;154989.19;;;10.10;100.00
46682;BME280;34101;53.430;-2.224;2022-09-27T04:49:01;154974.80;;;10.05;100.00
46682;BME280;34101;53.430;-2.224;2022-09-27T04:51:28;154971.65;;;10.03;100.00
46682;BME280;34101;53.430;-2.224;2022-09-27T04:53:56;154969.07;;;10.02;100.00
46682;BME280;34101;53.430;-2.224;2022-09-27T04:56:23;154963.57;;;10.00;100.00
46682;BME280;34101;53.430;-2.224;2022-09-27T04:58:50;154910.24;;;9.79;100.00
46682;BME280;34101;53.430;-2.224;2022-09-27T05:01:18;154924.46;;;9.84;100.00
46682;BME280;34101;53.430;-2.224;2022-09-27T05:03:45;154939.89;;;9.91;100.00
46682;BME280;34101;53.430;-2.224;2022-09-27T05:06:13;154967.85;;;10.02;100.00
46682;BME280;34101;53.430;-2.224;2022-09-27T05:08:40;154994.28;;;10.12;100.00
46682;BME280;34101;53.430;-2.224;2022-09-27T05:11:08;155020.63;;;10.23;100.00
46682;BME280;34101;53.430;-2.224;2022-09-27T05:13:35;155026.45;;;10.25;100.00
46682;BME280;34101;53.430;-2.224;2022-09-27T05:16:03;155041.65;;;10.32;100.00
46682;BME280;34101;53.430;-2.224;2022-09-27T05:18:31;155047.55;;;10.34;100.00
46682;BME280;34101;53.430;-2.224;2022-09-27T05:20:58;155048.44;;;10.34;100.00
46682;BME280;34101;53.430;-2.224;2022-09-27T05:23:26;155039.06;;;10.31;100.00
46682;BME280;34101;53.430;-2.224;2022-09-27T05:25:55;154997.76;;;10.14;100.00
46682;BME280;34101;53.430;-2.224;2022-09-27T05:28:22;154968.02;;;10.02;100.00
46682;BME280;34101;53.430;-2.224;2022-09-27T05:30:50;154896.58;;;9.73;100.00
46682;BME280;34101;53.430;-2.224;2022-09-27T05:33:17;154839.30;;;9.50;100.00
46682;BME280;34101;53.430;-2.224;2022-09-27T05:35:51;154814.42;;;9.40;100.00
46682;BME280;34101;53.430;-2.224;2022-09-27T05:38:19;154739.62;;;9.10;100.00
46682;BME280;34101;53.430;-2.224;2022-09-27T05:40:56;154753.67;;;9.15;100.00
46682;BME280;34101;53.430;-2.224;2022-09-27T05:43:24;154802.06;;;9.35;100.00
46682;BME280;34101;53.430;-2.224;2022-09-27T05:45:52;154747.05;;;9.13;100.00
46682;BME280;34101;53.430;-2.224;2022-09-27T05:48:19;154732.19;;;9.07;100.00
46682;BME280;34101;53.430;-2.224;2022-09-27T05:50:47;154720.80;;;9.02;100.00
46682;BME280;34101;53.430;-2.224;2022-09-27T05:53:14;154697.30;;;8.93;100.00
46682;BME280;34101;53.430;-2.224;2022-09-27T05:55:41;154724.51;;;9.04;100.00
46682;BME280;34101;53.430;-2.224;2022-09-27T05:58:10;154727.34;;;9.05;100.00
46682;BME280;34101;53.430;-2.224;2022-09-27T06:00:38;154704.65;;;8.96;100.00
46682;BME280;34101;53.430;-2.224;2022-09-27T06:03:06;154705.61;;;8.96;100.00
46682;BME280;34101;53.430;-2.224;2022-09-27T06:05:36;154680.18;;;8.86;100.00
46682;BME280;34101;53.430;-2.224;2022-09-27T06:08:06;154726.77;;;9.05;100.00
46682;BME280;34101;53.430;-2.224;2022-09-27T06:10:34;154731.06;;;9.06;100.00
46682;BME280;34101;53.430;-2.224;2022-09-27T06:13:03;154735.17;;;9.08;100.00
46682;BME280;34101;53.430;-2.224;2022-09-27T06:15:31;154779.28;;;9.26;100.00
46682;BME280;34101;53.430;-2.224;2022-09-27T06:18:03;154823.79;;;9.44;100.00
46682;BME280;34101;53.430;-2.224;2022-09-27T06:20:32;154766.35;;;9.21;100.00
46682;BME280;34101;53.430;-2.224;2022-09-27T06:23:04;154821.85;;;9.43;100.00
46682;BME280;34101;53.430;-2.224;2022-09-27T06:25:31;154828.55;;;9.46;100.00
46682;BME280;34101;53.430;-2.224;2022-09-27T06:27:59;154884.70;;;9.68;100.00
46682;BME280;34101;53.430;-2.224;2022-09-27T06:30:27;154910.88;;;9.79;100.00
46682;BME280;34101;53.430;-2.224;2022-09-27T06:32:55;154904.42;;;9.76;100.00
46682;BME280;34101;53.430;-2.224;2022-09-27T06:35:23;154906.28;;;9.77;100.00
46682;BME280;34101;53.430;-2.224;2022-09-27T06:37:50;154929.79;;;9.86;100.00
46682;BME280;34101;53.430;-2.224;2022-09-27T06:40:18;154955.25;;;9.97;100.00
46682;BME280;34101;53.430;-2.224;2022-09-27T06:42:45;154949.83;;;9.95;100.00
46682;BME280;34101;53.430;-2.224;2022-09-27T06:45:13;154980.95;;;10.07;100.00
46682;BME280;34101;53.430;-2.224;2022-09-27T06:47:40;155001.31;;;10.15;100.00
46682;BME280;34101;53.430;-2.224;2022-09-27T06:50:08;155036.55;;;10.29;100.00
46682;BME280;34101;53.430;-2.224;2022-09-27T06:52:36;155000.42;;;10.15;100.00
46682;BME280;34101;53.430;-2.224;2022-09-27T06:55:04;154961.55;;;9.99;100.00
46682;BME280;34101;53.430;-2.224;2022-09-27T06:57:31;154942.24;;;9.91;100.00
46682;BME280;34101;53.430;-2.224;2022-09-27T06:59:59;154923.25;;;9.84;100.00
46682;BME280;34101;53.430;-2.224;2022-09-27T07:02:26;154906.36;;;9.77;100.00
46682;BME280;34101;53.430;-2.224;2022-09-27T07:04:54;154929.07;;;9.86;100.00
46682;BME280;34101;53.430;-2.224;2022-09-27T07:07:21;154950.96;;;9.95;100.00
46682;BME280;34101;53.430;-2.224;2022-09-27T07:09:48;154983.05;;;10.08;100.00
46682;BME280;34101;53.430;-2.224;2022-09-27T07:12:16;155027.82;;;10.26;100.00
46682;BME280;34101;53.430;-2.224;2022-09-27T07:14:43;155056.68;;;10.38;100.00
46682;BME280;34101;53.430;-2.224;2022-09-27T07:17:10;155072.04;;;10.44;100.00
46682;BME280;34101;53.430;-2.224;2022-09-27T07:19:38;155105.18;;;10.57;100.00
46682;BME280;34101;53.430;-2.224;2022-09-27T07:22:05;155141.89;;;10.72;100.00
46682;BME280;34101;53.430;-2.224;2022-09-27T07:24:33;155167.68;;;10.82;100.00
46682;BME280;34101;53.430;-2.224;2022-09-27T07:27:01;155150.78;;;10.76;100.00
46682;BME280;34101;53.430;-2.224;2022-09-27T07:29:29;155156.12;;;10.78;100.00
46682;BME280;34101;53.430;-2.224;2022-09-27T07:31:56;155148.84;;;10.75;100.00
46682;BME280;34101;53.430;-2.224;2022-09-27T07:34:23;155111.49;;;10.60;100.00
46682;BME280;34101;53.430;-2.224;2022-09-27T07:36:51;155142.70;;;10.72;100.00
46682;BME280;34101;53.430;-2.224;2022-09-27T07:39:18;155088.53;;;10.50;100.00
46682;BME280;34101;53.430;-2.224;2022-09-27T07:41:45;155050.13;;;10.35;100.00
46682;BME280;34101;53.430;-2.224;2022-09-27T07:44:13;155039.79;;;10.31;100.00
46682;BME280;34101;53.430;-2.224;2022-09-27T07:46:42;155048.44;;;10.34;100.00
46682;BME280;34101;53.430;-2.224;2022-09-27T07:49:09;155073.25;;;10.44;100.00
46682;BME280;34101;53.430;-2.224;2022-09-27T07:51:36;155027.74;;;10.26;100.00
46682;BME280;34101;53.430;-2.224;2022-09-27T07:54:04;155064.85;;;10.41;100.00
46682;BME280;34101;53.430;-2.224;2022-09-27T07:56:31;155086.02;;;10.49;100.00
46682;BME280;34101;53.430;-2.224;2022-09-27T07:58:58;155106.40;;;10.58;100.00
46682;BME280;34101;53.430;-2.224;2022-09-27T08:01:26;155164.45;;;10.81;100.00
46682;BME280;34101;53.430;-2.224;2022-09-27T08:03:53;155200.27;;;10.95;100.00
46682;BME280;34101;53.430;-2.224;2022-09-27T08:06:21;155224.45;;;11.05;100.00
46682;BME280;34101;53.430;-2.224;2022-09-27T08:08:48;155188.14;;;10.91;100.00
46682;BME280;34101;53.430;-2.224;2022-09-27T08:11:16;155217.49;;;11.02;100.00
46682;BME280;34101;53.430;-2.224;2022-09-27T08:13:44;155346.33;;;11.54;100.00
46682;BME280;34101;53.430;-2.224;2022-09-27T08:16:12;155459.36;;;12.00;100.00
46682;BME280;34101;53.430;-2.224;2022-09-27T08:18:39;155486.46;;;12.11;100.00
46682;BME280;34101;53.430;-2.224;2022-09-27T08:21:07;155504.91;;;12.18;100.00
46682;BME280;34101;53.430;-2.224;2022-09-27T08:23:37;155489.13;;;12.12;100.00
46682;BME280;34101;53.430;-2.224;2022-09-27T08:26:04;155465.26;;;12.02;100.00
46682;BME280;34101;53.430;-2.224;2022-09-27T08:28:31;155481.93;;;12.09;100.00
46682;BME280;34101;53.430;-2.224;2022-09-27T08:30:59;155517.21;;;12.23;100.00
46682;BME280;34101;53.430;-2.224;2022-09-27T08:33:26;155750.59;;;13.17;100.00
46682;BME280;34101;53.430;-2.224;2022-09-27T08:35:54;156092.11;;;14.54;100.00
46682;BME280;34101;53.430;-2.224;2022-09-27T08:38:21;156111.31;;;14.62;100.00
46682;BME280;34101;53.430;-2.224;2022-09-27T08:40:53;156144.06;;;14.75;100.00
46682;BME280;34101;53.430;-2.224;2022-09-27T08:43:31;156399.19;;;15.78;100.00
46682;BME280;34101;53.430;-2.224;2022-09-27T08:46:09;156696.50;;;16.97;100.00
46682;BME280;34101;53.430;-2.224;2022-09-27T08:48:40;156890.17;;;17.75;100.00
46682;BME280;34101;53.430;-2.224;2022-09-27T08:51:12;156920.45;;;17.87;100.00
46682;BME280;34101;53.430;-2.224;2022-09-27T08:53:42;157114.21;;;18.64;93.48
46682;BME280;34101;53.430;-2.224;2022-09-27T08:56:14;157167.66;;;18.86;89.45
46682;BME280;34101;53.430;-2.224;2022-09-27T08:58:46;157229.72;;;19.11;88.53
46682;BME280;34101;53.430;-2.224;2022-09-27T09:01:18;157384.28;;;19.73;78.74
46682;BME280;34101;53.430;-2.224;2022-09-27T09:03:49;157242.48;;;19.16;67.86
46682;BME280;34101;53.430;-2.224;2022-09-27T09:06:22;157292.69;;;19.36;64.62
46682;BME280;34101;53.430;-2.224;2022-09-27T09:08:59;157423.61;;;19.89;51.07
46682;BME280;34101;53.430;-2.224;2022-09-27T09:11:37;157580.18;;;20.51;46.80
46682;BME280;34101;53.430;-2.224;2022-09-27T09:14:24;157733.05;;;21.12;43.56
46682;BME280;34101;53.430;-2.224;2022-09-27T09:17:03;157813.66;;;21.45;41.15
46682;BME280;34101;53.430;-2.224;2022-09-27T09:19:51;157854.01;;;21.61;40.49
46682;BME280;34101;53.430;-2.224;2022-09-27T09:22:32;157828.46;;;21.51;39.96
46682;BME280;34101;53.430;-2.224;2022-09-27T09:25:13;157867.51;;;21.66;39.87
46682;BME280;34101;53.430;-2.224;2022-09-27T09:27:49;157868.32;;;21.67;40.47
46682;BME280;34101;53.430;-2.224;2022-09-27T09:30:21;157680.44;;;20.91;40.77
46682;BME280;34101;53.430;-2.224;2022-09-27T09:33:08;157544.81;;;20.37;41.47
46682;BME280;34101;53.430;-2.224;2022-09-27T09:35:43;157441.33;;;19.96;42.59
46682;BME280;34101;53.430;-2.224;2022-09-27T09:38:18;157510.83;;;20.23;40.85
46682;BME280;34101;53.430;-2.224;2022-09-27T09:40:50;157683.85;;;20.93;39.83
46682;BME280;34101;53.430;-2.224;2022-09-27T09:43:22;157753.79;;;21.21;39.90
46682;BME280;34101;53.430;-2.224;2022-09-27T09:45:56;157915.43;;;21.85;39.16
46682;BME280;34101;53.430;-2.224;2022-09-27T09:48:31;157804.14;;;21.41;39.84
46682;BME280;34101;53.430;-2.224;2022-09-27T09:51:04;157631.40;;;20.72;41.40
46682;BME280;34101;53.430;-2.224;2022-09-27T09:53:39;157287.33;;;19.34;43.18
46682;BME280;34101;53.430;-2.224;2022-09-27T09:56:14;157099.43;;;18.59;44.57
46682;BME280;34101;53.430;-2.224;2022-09-27T09:58:46;156988.74;;;18.14;45.75
46682;BME280;34101;53.430;-2.224;2022-09-27T10:01:18;156909.08;;;17.82;45.39
46682;BME280;34101;53.430;-2.224;2022-09-27T10:03:46;156841.13;;;17.55;47.62
46682;BME280;34101;53.430;-2.224;2022-09-27T10:06:14;156764.51;;;17.24;47.87
46682;BME280;34101;53.430;-2.224;2022-09-27T10:08:42;156708.43;;;17.02;48.11
46682;BME280;34101;53.430;-2.224;2022-09-27T10:11:18;156587.69;;;16.53;49.48
46682;BME280;34101;53.430;-2.224;2022-09-27T10:13:47;156515.25;;;16.24;50.01
46682;BME280;34101;53.430;-2.224;2022-09-27T10:16:17;156459.28;;;16.02;50.92
46682;BME280;34101;53.430;-2.224;2022-09-27T10:18:46;156460.99;;;16.02;51.52
46682;BME280;34101;53.430;-2.224;2022-09-27T10:21:18;156411.51;;;15.83;51.75
46682;BME280;34101;53.430;-2.224;2022-09-27T10:24:18;156415.49;;;15.84;52.86
46682;BME280;34101;53.430;-2.224;2022-09-27T10:26:47;156397.89;;;15.77;54.36
46682;BME280;34101;53.430;-2.224;2022-09-27T10:29:24;156391.65;;;15.75;55.00
46682;BME280;34101;53.430;-2.224;2022-09-27T10:31:55;156372.75;;;15.67;54.16
46682;BME280;34101;53.430;-2.224;2022-09-27T10:34:27;156361.07;;;15.62;54.74
46682;BME280;34101;53.430;-2.224;2022-09-27T10:37:13;156327.26;;;15.49;54.25
46682;BME280;34101;53.430;-2.224;2022-09-27T10:39:41;156327.18;;;15.49;54.43
46682;BME280;34101;53.430;-2.224;2022-09-27T10:42:19;156299.53;;;15.38;54.77
46682;BME280;34101;53.430;-2.224;2022-09-27T10:44:47;156554.92;;;16.40;54.30
46682;BME280;34101;53.430;-2.224;2022-09-27T10:47:18;156820.19;;;17.47;50.85
46682;BME280;34101;53.430;-2.224;2022-09-27T10:49:48;156902.34;;;17.80;48.79
46682;BME280;34101;53.430;-2.224;2022-09-27T10:52:18;156979.48;;;18.10;47.62
46682;BME280;34101;53.430;-2.224;2022-09-27T10:54:53;156996.53;;;18.17;46.15
46682;BME280;34101;53.430;-2.224;2022-09-27T10:57:23;157158.23;;;18.82;44.81
46682;BME280;34101;53.430;-2.224;2022-09-27T10:59:53;157288.06;;;19.34;44.46
46682;BME280;34101;53.430;-2.224;2022-09-27T11:02:25;157140.20;;;18.75;42.68
46682;BME280;34101;53.430;-2.224;2022-09-27T11:05:05;157118.27;;;18.66;43.33
46682;BME280;34101;53.430;-2.224;2022-09-27T11:07:34;157052.32;;;18.40;44.77
46682;BME280;34101;53.430;-2.224;2022-09-27T11:10:20;157018.54;;;18.26;44.53
46682;BME280;34101;53.430;-2.224;2022-09-27T11:13:05;157105.11;;;18.61;44.93
46682;BME280;34101;53.430;-2.224;2022-09-27T11:15:38;157093.82;;;18.56;44.47
46682;BME280;34101;53.430;-2.224;2022-09-27T11:18:13;156953.58;;;18.00;43.06
46682;BME280;34101;53.430;-2.224;2022-09-27T11:20:48;156820.19;;;17.47;44.75
46682;BME280;34101;53.430;-2.224;2022-09-27T11:23:29;156914.68;;;17.84;44.69
46682;BME280;34101;53.430;-2.224;2022-09-27T11:26:11;156931.57;;;17.91;43.77
46682;BME280;34101;53.430;-2.224;2022-09-27T11:28:49;156971.28;;;18.07;43.98
46682;BME280;34101;53.430;-2.224;2022-09-27T11:31:26;156918.91;;;17.86;44.19
46682;BME280;34101;53.430;-2.224;2022-09-27T11:34:11;156952.85;;;18.00;44.27
46682;BME280;34101;53.430;-2.224;2022-09-27T11:36:54;156784.80;;;17.32;44.48
46682;BME280;34101;53.430;-2.224;2022-09-27T11:39:34;156725.15;;;17.08;45.40
46682;BME280;34101;53.430;-2.224;2022-09-27T11:42:20;156826.36;;;17.49;44.95
46682;BME280;34101;53.430;-2.224;2022-09-27T11:44:59;156768.24;;;17.26;45.77
46682;BME280;34101;53.430;-2.224;2022-09-27T11:47:36;156724.17;;;17.08;46.92
46682;BME280;34101;53.430;-2.224;2022-09-27T11:50:19;156710.95;;;17.03;47.17
46682;BME280;34101;53.430;-2.224;2022-09-27T11:53:03;156615.36;;;16.64;47.49
46682;BME280;34101;53.430;-2.224;2022-09-27T11:55:42;156609.27;;;16.62;49.31
46682;BME280;34101;53.430;-2.224;2022-09-27T11:58:20;156547.70;;;16.37;49.75
46682;BME280;34101;53.430;-2.224;2022-09-27T12:01:01;156580.39;;;16.50;49.77
46682;BME280;34101;53.430;-2.224;2022-09-27T12:03:53;156539.34;;;16.34;50.84
46682;BME280;34101;53.430;-2.224;2022-09-27T12:06:34;156461.31;;;16.03;54.95
46682;BME280;34101;53.430;-2.224;2022-09-27T12:09:08;156355.40;;;15.60;58.61
46682;BME280;34101;53.430;-2.224;2022-09-27T12:11:40;156339.26;;;15.54;58.66
46682;BME280;34101;53.430;-2.224;2022-09-27T12:14:17;156347.86;;;15.57;59.92
46682;BME280;34101;53.430;-2.224;2022-09-27T12:16:49;156372.75;;;15.67;60.44
46682;BME280;34101;53.430;-2.224;2022-09-27T12:19:19;156445.66;;;15.96;59.07
46682;BME280;34101;53.430;-2.224;2022-09-27T12:21:49;156510.46;;;16.22;58.93
46682;BME280;34101;53.430;-2.224;2022-09-27T12:24:20;156588.26;;;16.53;56.21
46682;BME280;34101;53.430;-2.224;2022-09-27T12:26:50;156736.51;;;17.13;56.11
46682;BME280;34101;53.430;-2.224;2022-09-27T12:29:24;156829.20;;;17.50;54.25
46682;BME280;34101;53.430;-2.224;2022-09-27T12:31:58;156963.64;;;18.04;53.08
46682;BME280;34101;53.430;-2.224;2022-09-27T12:34:35;157000.35;;;18.19;50.71
46682;BME280;34101;53.430;-2.224;2022-09-27T12:37:11;157130.62;;;18.71;50.91
46682;BME280;34101;53.430;-2.224;2022-09-27T12:39:47;157233.38;;;19.12;49.60
46682;BME280;34101;53.430;-2.224;2022-09-27T12:42:20;157184.47;;;18.93;50.03
46682;BME280;34101;53.430;-2.224;2022-09-27T12:44:50;157191.54;;;18.95;50.37
46682;BME280;34101;53.430;-2.224;2022-09-27T12:47:28;157154.50;;;18.81;52.82
46682;BME280;34101;53.430;-2.224;2022-09-27T12:50:03;156957.31;;;18.02;49.35
46682;BME280;34101;53.430;-2.224;2022-09-27T12:52:38;156859.24;;;17.62;49.67
46682;BME280;34101;53.430;-2.224;2022-09-27T12:55:21;156797.71;;;17.38;50.11
46682;BME280;34101;53.430;-2.224;2022-09-27T12:58:11;156858.26;;;17.62;49.42
46682;BME280;34101;53.430;-2.224;2022-09-27T13:00:45;156876.28;;;17.69;48.20